sensor_id;sensor_type;location;lat;lon;timestamp;P1;durP1;ratioP1;P2;durP2;ratioP2
69280;SDS011;56392;51.082;17.080;2024-02-23T00:01:14;8.98;;;2.85;;
69280;SDS011;56392;51.082;17.080;2024-02-23T00:06:39;7.47;;;2.42;;
69280;SDS011;56392;51.082;17.080;2024-02-23T00:12:02;7.17;;;2.10;;
69280;SDS011;56392;51.082;17.080;2024-02-23T00:17:26;6.93;;;2.00;;
69280;SDS011;56392;51.082;17.080;2024-02-23T00:22:50;6.88;;;1.80;;
69280;SDS011;56392;51.082;17.080;2024-02-23T00:28:14;7.97;;;1.77;;
69280;SDS011;56392;51.082;17.080;2024-02-23T00:33:37;5.27;;;1.70;;
69280;SDS011;56392;51.082;17.080;2024-02-23T00:39:05;6.15;;;1.38;;
69280;SDS011;56392;51.082;17.080;2024-02-23T00:44:30;4.90;;;1.10;;
69280;SDS011;56392;51.082;17.080;2024-02-23T00:49:53;4.67;;;1.00;;
69280;SDS011;56392;51.082;17.080;2024-02-23T00:55:18;5.75;;;1.20;;
69280;SDS011;56392;51.082;17.080;2024-02-23T01:00:41;4.03;;;1.10;;
69280;SDS011;56392;51.082;17.080;2024-02-23T01:06:04;3.33;;;0.80;;
69280;SDS011;56392;51.082;17.080;2024-02-23T01:11:29;4.07;;;0.90;;
69280;SDS011;56392;51.082;17.080;2024-02-23T01:16:52;3.80;;;0.90;;
69280;SDS011;56392;51.082;17.080;2024-02-23T01:22:15;4.93;;;1.00;;
69280;SDS011;56392;51.082;17.080;2024-02-23T01:27:39;4.33;;;1.07;;
69280;SDS011;56392;51.082;17.080;2024-02-23T01:33:02;4.72;;;1.10;;
69280;SDS011;56392;51.082;17.080;2024-02-23T01:38:25;4.43;;;1.15;;
69280;SDS011;56392;51.082;17.080;2024-02-23T01:43:54;5.50;;;1.23;;
69280;SDS011;56392;51.082;17.080;2024-02-23T01:49:17;5.03;;;1.40;;
69280;SDS011;56392;51.082;17.080;2024-02-23T01:54:41;6.72;;;2.08;;
69280;SDS011;56392;51.082;17.080;2024-02-23T02:00:07;4.70;;;1.20;;
69280;SDS011;56392;51.082;17.080;2024-02-23T02:05:32;5.57;;;1.70;;
69280;SDS011;56392;51.082;17.080;2024-02-23T02:10:55;5.63;;;1.92;;
69280;SDS011;56392;51.082;17.080;2024-02-23T02:16:19;6.00;;;2.00;;
69280;SDS011;56392;51.082;17.080;2024-02-23T02:21:42;5.57;;;2.07;;
69280;SDS011;56392;51.082;17.080;2024-02-23T02:27:05;7.05;;;2.25;;
69280;SDS011;56392;51.082;17.080;2024-02-23T02:32:30;6.22;;;2.22;;
69280;SDS011;56392;51.082;17.080;2024-02-23T02:37:53;6.60;;;2.23;;
69280;SDS011;56392;51.082;17.080;2024-02-23T02:43:17;7.40;;;2.55;;
69280;SDS011;56392;51.082;17.080;2024-02-23T02:48:41;7.32;;;2.95;;
69280;SDS011;56392;51.082;17.080;2024-02-23T02:54:04;6.87;;;2.73;;
69280;SDS011;56392;51.082;17.080;2024-02-23T02:59:27;6.65;;;2.47;;
69280;SDS011;56392;51.082;17.080;2024-02-23T03:04:51;7.90;;;2.55;;
69280;SDS011;56392;51.082;17.080;2024-02-23T03:10:16;5.83;;;2.03;;
69280;SDS011;56392;51.082;17.080;2024-02-23T03:15:39;6.20;;;2.20;;
69280;SDS011;56392;51.082;17.080;2024-02-23T03:21:07;6.35;;;2.30;;
69280;SDS011;56392;51.082;17.080;2024-02-23T03:26:30;6.03;;;2.30;;
69280;SDS011;56392;51.082;17.080;2024-02-23T03:31:53;5.80;;;2.20;;
69280;SDS011;56392;51.082;17.080;2024-02-23T03:37:18;5.68;;;2.05;;
69280;SDS011;56392;51.082;17.080;2024-02-23T03:42:41;6.63;;;2.20;;
69280;SDS011;56392;51.082;17.080;2024-02-23T03:48:05;6.53;;;2.03;;
69280;SDS011;56392;51.082;17.080;2024-02-23T03:53:29;6.20;;;2.08;;
69280;SDS011;56392;51.082;17.080;2024-02-23T03:58:53;5.82;;;2.10;;
69280;SDS011;56392;51.082;17.080;2024-02-23T04:04:16;6.37;;;2.50;;
69280;SDS011;56392;51.082;17.080;2024-02-23T04:09:41;7.80;;;2.70;;
69280;SDS011;56392;51.082;17.080;2024-02-23T04:15:04;6.90;;;2.35;;
69280;SDS011;56392;51.082;17.080;2024-02-23T04:20:28;6.50;;;2.40;;
69280;SDS011;56392;51.082;17.080;2024-02-23T04:25:52;5.90;;;1.93;;
69280;SDS011;56392;51.082;17.080;2024-02-23T04:31:16;6.82;;;2.15;;
69280;SDS011;56392;51.082;17.080;2024-02-23T04:36:39;6.18;;;2.00;;
69280;SDS011;56392;51.082;17.080;2024-02-23T04:42:04;6.77;;;2.40;;
69280;SDS011;56392;51.082;17.080;2024-02-23T04:47:29;6.93;;;2.35;;
69280;SDS011;56392;51.082;17.080;2024-02-23T04:52:53;7.60;;;2.58;;
69280;SDS011;56392;51.082;17.080;2024-02-23T04:58:18;6.77;;;2.70;;
69280;SDS011;56392;51.082;17.080;2024-02-23T05:03:42;6.57;;;2.40;;
69280;SDS011;56392;51.082;17.080;2024-02-23T05:09:05;7.35;;;2.53;;
69280;SDS011;56392;51.082;17.080;2024-02-23T05:14:32;8.05;;;3.58;;
69280;SDS011;56392;51.082;17.080;2024-02-23T05:19:55;7.00;;;2.57;;
69280;SDS011;56392;51.082;17.080;2024-02-23T05:25:18;7.82;;;2.40;;
69280;SDS011;56392;51.082;17.080;2024-02-23T05:30:42;7.18;;;2.75;;
69280;SDS011;56392;51.082;17.080;2024-02-23T05:36:05;8.97;;;4.50;;
69280;SDS011;56392;51.082;17.080;2024-02-23T05:41:29;9.77;;;5.28;;
69280;SDS011;56392;51.082;17.080;2024-02-23T05:46:54;11.45;;;6.15;;
69280;SDS011;56392;51.082;17.080;2024-02-23T05:52:17;12.53;;;6.87;;
69280;SDS011;56392;51.082;17.080;2024-02-23T05:57:40;11.23;;;6.47;;
69280;SDS011;56392;51.082;17.080;2024-02-23T06:03:05;15.38;;;8.95;;
69280;SDS011;56392;51.082;17.080;2024-02-23T06:08:28;14.48;;;8.27;;
69280;SDS011;56392;51.082;17.080;2024-02-23T06:13:51;18.87;;;10.00;;
69280;SDS011;56392;51.082;17.080;2024-02-23T06:19:16;25.23;;;12.45;;
69280;SDS011;56392;51.082;17.080;2024-02-23T06:24:41;39.28;;;19.30;;
69280;SDS011;56392;51.082;17.080;2024-02-23T06:30:05;54.20;;;26.83;;
69280;SDS011;56392;51.082;17.080;2024-02-23T06:35:30;22.63;;;12.85;;
69280;SDS011;56392;51.082;17.080;2024-02-23T06:40:53;10.85;;;4.35;;
69280;SDS011;56392;51.082;17.080;2024-02-23T06:46:18;6.90;;;2.47;;
69280;SDS011;56392;51.082;17.080;2024-02-23T06:51:43;7.30;;;2.43;;
69280;SDS011;56392;51.082;17.080;2024-02-23T06:57:07;8.95;;;2.63;;
69280;SDS011;56392;51.082;17.080;2024-02-23T07:02:30;11.63;;;3.13;;
69280;SDS011;56392;51.082;17.080;2024-02-23T07:07:59;16.80;;;3.70;;
69280;SDS011;56392;51.082;17.080;2024-02-23T07:13:25;18.23;;;4.22;;
69280;SDS011;56392;51.082;17.080;2024-02-23T07:18:48;12.02;;;2.45;;
69280;SDS011;56392;51.082;17.080;2024-02-23T07:24:13;8.33;;;1.83;;
69280;SDS011;56392;51.082;17.080;2024-02-23T07:29:37;10.02;;;1.90;;
69280;SDS011;56392;51.082;17.080;2024-02-23T07:35:00;7.90;;;1.77;;
69280;SDS011;56392;51.082;17.080;2024-02-23T07:40:26;7.93;;;1.90;;
69280;SDS011;56392;51.082;17.080;2024-02-23T07:45:50;6.90;;;1.63;;
69280;SDS011;56392;51.082;17.080;2024-02-23T07:51:13;5.20;;;1.35;;
69280;SDS011;56392;51.082;17.080;2024-02-23T07:56:37;6.78;;;1.40;;
69280;SDS011;56392;51.082;17.080;2024-02-23T08:02:00;5.10;;;1.30;;
69280;SDS011;56392;51.082;17.080;2024-02-23T08:07:23;6.15;;;1.27;;
69280;SDS011;56392;51.082;17.080;2024-02-23T08:12:48;5.18;;;1.48;;
69280;SDS011;56392;51.082;17.080;2024-02-23T08:18:14;4.87;;;1.27;;
69280;SDS011;56392;51.082;17.080;2024-02-23T08:23:37;6.07;;;1.60;;
69280;SDS011;56392;51.082;17.080;2024-02-23T08:29:02;6.88;;;1.70;;
69280;SDS011;56392;51.082;17.080;2024-02-23T08:34:26;8.60;;;2.20;;
69280;SDS011;56392;51.082;17.080;2024-02-23T08:39:49;7.03;;;2.00;;
69280;SDS011;56392;51.082;17.080;2024-02-23T08:45:13;8.55;;;2.47;;
69280;SDS011;56392;51.082;17.080;2024-02-23T08:50:37;7.28;;;2.25;;
69280;SDS011;56392;51.082;17.080;2024-02-23T08:56:00;3.57;;;0.70;;
69280;SDS011;56392;51.082;17.080;2024-02-23T09:01:24;2.75;;;0.60;;
69280;SDS011;56392;51.082;17.080;2024-02-23T09:06:47;4.55;;;0.80;;
69280;SDS011;56392;51.082;17.080;2024-02-23T09:12:14;5.00;;;0.70;;
69280;SDS011;56392;51.082;17.080;2024-02-23T09:17:41;3.20;;;0.50;;
69280;SDS011;56392;51.082;17.080;2024-02-23T09:23:04;3.78;;;0.65;;
69280;SDS011;56392;51.082;17.080;2024-02-23T09:28:27;5.13;;;0.80;;
69280;SDS011;56392;51.082;17.080;2024-02-23T09:33:54;3.50;;;0.50;;
69280;SDS011;56392;51.082;17.080;2024-02-23T09:39:17;4.85;;;0.60;;
69280;SDS011;56392;51.082;17.080;2024-02-23T09:44:41;3.97;;;0.77;;
69280;SDS011;56392;51.082;17.080;2024-02-23T09:50:09;3.53;;;0.67;;
69280;SDS011;56392;51.082;17.080;2024-02-23T09:55:35;3.72;;;0.73;;
69280;SDS011;56392;51.082;17.080;2024-02-23T10:00:58;4.50;;;0.80;;
69280;SDS011;56392;51.082;17.080;2024-02-23T10:06:24;5.03;;;0.80;;
69280;SDS011;56392;51.082;17.080;2024-02-23T10:11:51;5.00;;;0.90;;
69280;SDS011;56392;51.082;17.080;2024-02-23T10:17:14;3.42;;;0.80;;
69280;SDS011;56392;51.082;17.080;2024-02-23T10:22:39;5.90;;;0.90;;
69280;SDS011;56392;51.082;17.080;2024-02-23T10:28:02;4.00;;;0.77;;
69280;SDS011;56392;51.082;17.080;2024-02-23T10:33:25;5.80;;;0.88;;
69280;SDS011;56392;51.082;17.080;2024-02-23T10:38:51;8.35;;;1.00;;
69280;SDS011;56392;51.082;17.080;2024-02-23T10:44:18;4.93;;;0.90;;
69280;SDS011;56392;51.082;17.080;2024-02-23T10:49:41;4.93;;;0.85;;
69280;SDS011;56392;51.082;17.080;2024-02-23T10:55:08;3.80;;;0.90;;
69280;SDS011;56392;51.082;17.080;2024-02-23T11:00:32;4.20;;;0.90;;
69280;SDS011;56392;51.082;17.080;2024-02-23T11:05:56;4.10;;;0.70;;
69280;SDS011;56392;51.082;17.080;2024-02-23T11:11:21;5.28;;;1.02;;
69280;SDS011;56392;51.082;17.080;2024-02-23T11:16:44;5.47;;;0.97;;
69280;SDS011;56392;51.082;17.080;2024-02-23T11:22:14;6.40;;;0.90;;
69280;SDS011;56392;51.082;17.080;2024-02-23T11:27:38;7.78;;;1.05;;
69280;SDS011;56392;51.082;17.080;2024-02-23T11:33:04;7.30;;;1.00;;
69280;SDS011;56392;51.082;17.080;2024-02-23T11:38:31;8.50;;;2.00;;
69280;SDS011;56392;51.082;17.080;2024-02-23T11:43:56;7.18;;;1.50;;
69280;SDS011;56392;51.082;17.080;2024-02-23T11:49:20;6.18;;;1.00;;
69280;SDS011;56392;51.082;17.080;2024-02-23T11:54:43;5.40;;;0.90;;
69280;SDS011;56392;51.082;17.080;2024-02-23T12:00:09;4.90;;;1.00;;
69280;SDS011;56392;51.082;17.080;2024-02-23T12:05:33;6.35;;;1.00;;
69280;SDS011;56392;51.082;17.080;2024-02-23T12:10:56;5.50;;;1.10;;
69280;SDS011;56392;51.082;17.080;2024-02-23T12:16:25;4.70;;;1.20;;
69280;SDS011;56392;51.082;17.080;2024-02-23T12:21:48;5.28;;;0.70;;
69280;SDS011;56392;51.082;17.080;2024-02-23T12:27:12;5.00;;;1.20;;
69280;SDS011;56392;51.082;17.080;2024-02-23T12:32:40;4.67;;;1.20;;
69280;SDS011;56392;51.082;17.080;2024-02-23T12:38:04;4.57;;;0.82;;
69280;SDS011;56392;51.082;17.080;2024-02-23T12:43:27;4.70;;;1.30;;
69280;SDS011;56392;51.082;17.080;2024-02-23T12:48:52;5.20;;;1.33;;
69280;SDS011;56392;51.082;17.080;2024-02-23T12:54:15;5.35;;;1.20;;
69280;SDS011;56392;51.082;17.080;2024-02-23T12:59:38;5.63;;;1.30;;
69280;SDS011;56392;51.082;17.080;2024-02-23T13:05:03;6.33;;;1.27;;
69280;SDS011;56392;51.082;17.080;2024-02-23T13:10:27;6.70;;;1.40;;
69280;SDS011;56392;51.082;17.080;2024-02-23T13:15:52;5.75;;;1.38;;
69280;SDS011;56392;51.082;17.080;2024-02-23T13:21:17;5.32;;;1.23;;
69280;SDS011;56392;51.082;17.080;2024-02-23T13:26:41;4.13;;;1.00;;
69280;SDS011;56392;51.082;17.080;2024-02-23T13:32:04;5.65;;;2.15;;
69280;SDS011;56392;51.082;17.080;2024-02-23T13:37:30;7.00;;;1.75;;
69280;SDS011;56392;51.082;17.080;2024-02-23T13:42:53;6.40;;;1.83;;
69280;SDS011;56392;51.082;17.080;2024-02-23T13:48:16;5.68;;;1.60;;
69280;SDS011;56392;51.082;17.080;2024-02-23T13:53:42;7.32;;;1.13;;
69280;SDS011;56392;51.082;17.080;2024-02-23T13:59:05;5.23;;;1.13;;
69280;SDS011;56392;51.082;17.080;2024-02-23T14:04:28;6.03;;;0.90;;
69280;SDS011;56392;51.082;17.080;2024-02-23T14:09:53;7.40;;;1.40;;
69280;SDS011;56392;51.082;17.080;2024-02-23T14:15:16;7.38;;;1.23;;
69280;SDS011;56392;51.082;17.080;2024-02-23T14:20:40;8.43;;;1.47;;
69280;SDS011;56392;51.082;17.080;2024-02-23T14:26:04;6.57;;;1.33;;
69280;SDS011;56392;51.082;17.080;2024-02-23T14:31:28;7.20;;;1.55;;
69280;SDS011;56392;51.082;17.080;2024-02-23T14:36:51;7.17;;;2.20;;
69280;SDS011;56392;51.082;17.080;2024-02-23T14:42:19;10.00;;;1.95;;
69280;SDS011;56392;51.082;17.080;2024-02-23T14:47:42;8.38;;;1.58;;
69280;SDS011;56392;51.082;17.080;2024-02-23T14:53:06;6.73;;;1.40;;
69280;SDS011;56392;51.082;17.080;2024-02-23T14:58:31;7.07;;;1.47;;
69280;SDS011;56392;51.082;17.080;2024-02-23T15:03:56;5.75;;;1.35;;
69280;SDS011;56392;51.082;17.080;2024-02-23T15:09:19;7.13;;;1.40;;
69280;SDS011;56392;51.082;17.080;2024-02-23T15:14:44;5.77;;;1.30;;
69280;SDS011;56392;51.082;17.080;2024-02-23T15:20:08;7.45;;;1.67;;
69280;SDS011;56392;51.082;17.080;2024-02-23T15:25:31;5.80;;;1.23;;
69280;SDS011;56392;51.082;17.080;2024-02-23T15:30:57;6.70;;;1.30;;
69280;SDS011;56392;51.082;17.080;2024-02-23T15:36:20;6.47;;;1.42;;
69280;SDS011;56392;51.082;17.080;2024-02-23T15:41:43;5.47;;;1.30;;
69280;SDS011;56392;51.082;17.080;2024-02-23T15:47:08;11.07;;;2.90;;
69280;SDS011;56392;51.082;17.080;2024-02-23T15:52:32;12.93;;;3.20;;
69280;SDS011;56392;51.082;17.080;2024-02-23T15:57:55;8.30;;;2.40;;
69280;SDS011;56392;51.082;17.080;2024-02-23T16:03:19;8.27;;;2.60;;
69280;SDS011;56392;51.082;17.080;2024-02-23T16:08:43;5.70;;;1.40;;
69280;SDS011;56392;51.082;17.080;2024-02-23T16:14:08;4.53;;;1.20;;
69280;SDS011;56392;51.082;17.080;2024-02-23T16:19:32;9.15;;;1.50;;
69280;SDS011;56392;51.082;17.080;2024-02-23T16:24:55;9.10;;;1.63;;
69280;SDS011;56392;51.082;17.080;2024-02-23T16:30:18;7.95;;;1.60;;
69280;SDS011;56392;51.082;17.080;2024-02-23T16:35:43;6.68;;;1.35;;
69280;SDS011;56392;51.082;17.080;2024-02-23T16:41:06;8.97;;;2.10;;
69280;SDS011;56392;51.082;17.080;2024-02-23T16:46:30;9.87;;;2.60;;
69280;SDS011;56392;51.082;17.080;2024-02-23T16:51:55;11.45;;;3.15;;
69280;SDS011;56392;51.082;17.080;2024-02-23T16:57:18;12.27;;;3.40;;
69280;SDS011;56392;51.082;17.080;2024-02-23T17:02:41;12.53;;;3.47;;
69280;SDS011;56392;51.082;17.080;2024-02-23T17:08:06;11.40;;;3.85;;
69280;SDS011;56392;51.082;17.080;2024-02-23T17:13:29;15.23;;;4.10;;
69280;SDS011;56392;51.082;17.080;2024-02-23T17:18:52;14.47;;;5.00;;
69280;SDS011;56392;51.082;17.080;2024-02-23T17:24:16;20.90;;;7.47;;
69280;SDS011;56392;51.082;17.080;2024-02-23T17:29:39;16.13;;;6.53;;
69280;SDS011;56392;51.082;17.080;2024-02-23T17:35:03;13.73;;;5.73;;
69280;SDS011;56392;51.082;17.080;2024-02-23T17:40:28;12.30;;;5.23;;
69280;SDS011;56392;51.082;17.080;2024-02-23T17:45:52;12.02;;;4.95;;
69280;SDS011;56392;51.082;17.080;2024-02-23T17:51:15;11.43;;;4.53;;
69280;SDS011;56392;51.082;17.080;2024-02-23T17:56:39;12.43;;;4.30;;
69280;SDS011;56392;51.082;17.080;2024-02-23T18:02:02;10.65;;;4.03;;
69280;SDS011;56392;51.082;17.080;2024-02-23T18:07:28;15.40;;;5.97;;
69280;SDS011;56392;51.082;17.080;2024-02-23T18:12:53;10.20;;;3.30;;
69280;SDS011;56392;51.082;17.080;2024-02-23T18:18:17;9.48;;;2.53;;
69280;SDS011;56392;51.082;17.080;2024-02-23T18:23:40;9.73;;;3.33;;
69280;SDS011;56392;51.082;17.080;2024-02-23T18:29:05;17.23;;;4.67;;
69280;SDS011;56392;51.082;17.080;2024-02-23T18:34:28;14.23;;;5.33;;
69280;SDS011;56392;51.082;17.080;2024-02-23T18:39:52;14.88;;;5.10;;
69280;SDS011;56392;51.082;17.080;2024-02-23T18:45:17;11.30;;;3.42;;
69280;SDS011;56392;51.082;17.080;2024-02-23T18:50:42;7.40;;;1.97;;
69280;SDS011;56392;51.082;17.080;2024-02-23T18:56:07;9.40;;;2.15;;
69280;SDS011;56392;51.082;17.080;2024-02-23T19:01:31;7.47;;;1.85;;
69280;SDS011;56392;51.082;17.080;2024-02-23T19:06:55;8.53;;;2.50;;
69280;SDS011;56392;51.082;17.080;2024-02-23T19:12:18;9.38;;;2.40;;
69280;SDS011;56392;51.082;17.080;2024-02-23T19:17:42;6.40;;;1.63;;
69280;SDS011;56392;51.082;17.080;2024-02-23T19:23:05;5.70;;;1.50;;
69280;SDS011;56392;51.082;17.080;2024-02-23T19:28:29;8.10;;;1.90;;
69280;SDS011;56392;51.082;17.080;2024-02-23T19:33:54;8.68;;;3.00;;
69280;SDS011;56392;51.082;17.080;2024-02-23T19:39:17;7.80;;;1.83;;
69280;SDS011;56392;51.082;17.080;2024-02-23T19:44:41;7.03;;;1.80;;
69280;SDS011;56392;51.082;17.080;2024-02-23T19:50:06;9.05;;;1.52;;
69280;SDS011;56392;51.082;17.080;2024-02-23T19:55:30;5.93;;;1.60;;
69280;SDS011;56392;51.082;17.080;2024-02-23T20:00:53;10.57;;;3.10;;
69280;SDS011;56392;51.082;17.080;2024-02-23T20:06:17;11.32;;;3.13;;
69280;SDS011;56392;51.082;17.080;2024-02-23T20:11:41;11.30;;;3.58;;
69280;SDS011;56392;51.082;17.080;2024-02-23T20:17:04;10.83;;;3.83;;
69280;SDS011;56392;51.082;17.080;2024-02-23T20:22:29;13.30;;;4.70;;
69280;SDS011;56392;51.082;17.080;2024-02-23T20:27:52;16.60;;;5.95;;
69280;SDS011;56392;51.082;17.080;2024-02-23T20:33:15;20.05;;;5.65;;
69280;SDS011;56392;51.082;17.080;2024-02-23T20:38:40;16.13;;;6.57;;
69280;SDS011;56392;51.082;17.080;2024-02-23T20:44:03;15.45;;;6.20;;
69280;SDS011;56392;51.082;17.080;2024-02-23T20:49:27;16.13;;;5.88;;
69280;SDS011;56392;51.082;17.080;2024-02-23T20:54:53;14.60;;;6.23;;
69280;SDS011;56392;51.082;17.080;2024-02-23T21:00:16;15.50;;;5.40;;
69280;SDS011;56392;51.082;17.080;2024-02-23T21:05:40;15.10;;;5.70;;
69280;SDS011;56392;51.082;17.080;2024-02-23T21:11:05;15.77;;;5.83;;
69280;SDS011;56392;51.082;17.080;2024-02-23T21:16:28;14.87;;;5.70;;
69280;SDS011;56392;51.082;17.080;2024-02-23T21:21:52;15.32;;;6.00;;
69280;SDS011;56392;51.082;17.080;2024-02-23T21:27:17;15.55;;;6.18;;
69280;SDS011;56392;51.082;17.080;2024-02-23T21:32:41;13.77;;;5.70;;
69280;SDS011;56392;51.082;17.080;2024-02-23T21:38:04;15.50;;;5.50;;
69280;SDS011;56392;51.082;17.080;2024-02-23T21:43:31;14.90;;;5.60;;
69280;SDS011;56392;51.082;17.080;2024-02-23T21:48:54;18.47;;;6.47;;
69280;SDS011;56392;51.082;17.080;2024-02-23T21:54:18;15.07;;;5.80;;
69280;SDS011;56392;51.082;17.080;2024-02-23T21:59:45;13.32;;;5.20;;
69280;SDS011;56392;51.082;17.080;2024-02-23T22:05:09;14.73;;;5.90;;
69280;SDS011;56392;51.082;17.080;2024-02-23T22:10:33;15.70;;;5.60;;
69280;SDS011;56392;51.082;17.080;2024-02-23T22:15:59;18.85;;;5.85;;
69280;SDS011;56392;51.082;17.080;2024-02-23T22:21:22;14.65;;;5.60;;
69280;SDS011;56392;51.082;17.080;2024-02-23T22:26:46;13.30;;;5.67;;
69280;SDS011;56392;51.082;17.080;2024-02-23T22:32:10;20.52;;;7.85;;
69280;SDS011;56392;51.082;17.080;2024-02-23T22:37:34;18.10;;;7.82;;
69280;SDS011;56392;51.082;17.080;2024-02-23T22:42:58;17.40;;;7.97;;
69280;SDS011;56392;51.082;17.080;2024-02-23T22:48:24;21.52;;;8.07;;
69280;SDS011;56392;51.082;17.080;2024-02-23T22:53:48;20.60;;;8.93;;
69280;SDS011;56392;51.082;17.080;2024-02-23T22:59:11;19.73;;;8.50;;
69280;SDS011;56392;51.082;17.080;2024-02-23T23:04:36;17.00;;;8.70;;
69280;SDS011;56392;51.082;17.080;2024-02-23T23:09:59;28.13;;;9.45;;
69280;SDS011;56392;51.082;17.080;2024-02-23T23:15:23;39.47;;;11.68;;
69280;SDS011;56392;51.082;17.080;2024-02-23T23:20:47;38.17;;;11.67;;
69280;SDS011;56392;51.082;17.080;2024-02-23T23:26:11;20.27;;;8.00;;
69280;SDS011;56392;51.082;17.080;2024-02-23T23:31:34;17.42;;;7.00;;
69280;SDS011;56392;51.082;17.080;2024-02-23T23:36:58;15.57;;;6.33;;
69280;SDS011;56392;51.082;17.080;2024-02-23T23:42:22;36.75;;;9.93;;
69280;SDS011;56392;51.082;17.080;2024-02-23T23:47:45;30.33;;;8.88;;
69280;SDS011;56392;51.082;17.080;2024-02-23T23:53:09;16.83;;;7.00;;
69280;SDS011;56392;51.082;17.080;2024-02-23T23:58:32;16.03;;;6.07;;
